Terminal Aerodrome Forecast
Issued by NWS

Home | Current Version | Previous Version | Graphics & Text | Print | Product List | Glossary On
Versions: 1 2 3 4 5 6 7 8 9 10 11 12 13
000
FTUS43 KABR 100500
TAFATY
TAF
KATY 100536Z 1006/1106 10004KT P6SM SKC
     FM100800 14005KT P6SM SKC
     FM101700 17015G20KT P6SM SCT250=

USA.gov is the U.S. government's official web portal to all federal, state and local government web resources and services.